sensor_id;sensor_type;location;lat;lon;timestamp;temperature;humidity
30280;DHT22;17097;50.916;5.344;2023-06-22T00:00:50;23.70;99.90
30280;DHT22;17097;50.916;5.344;2023-06-22T00:03:18;23.60;99.90
30280;DHT22;17097;50.916;5.344;2023-06-22T00:05:46;23.70;99.90
30280;DHT22;17097;50.916;5.344;2023-06-22T00:08:12;23.60;99.90
30280;DHT22;17097;50.916;5.344;2023-06-22T00:10:38;23.70;99.90
30280;DHT22;17097;50.916;5.344;2023-06-22T00:13:05;23.70;99.90
30280;DHT22;17097;50.916;5.344;2023-06-22T00:15:31;23.60;99.90
30280;DHT22;17097;50.916;5.344;2023-06-22T00:17:57;23.60;99.90
30280;DHT22;17097;50.916;5.344;2023-06-22T00:20:24;23.70;99.90
30280;DHT22;17097;50.916;5.344;2023-06-22T00:22:56;23.70;99.90
30280;DHT22;17097;50.916;5.344;2023-06-22T00:25:22;23.50;99.90
30280;DHT22;17097;50.916;5.344;2023-06-22T00:27:48;23.50;99.90
30280;DHT22;17097;50.916;5.344;2023-06-22T00:30:18;23.50;99.90
30280;DHT22;17097;50.916;5.344;2023-06-22T00:32:45;23.40;99.90
30280;DHT22;17097;50.916;5.344;2023-06-22T00:35:12;23.40;99.90
30280;DHT22;17097;50.916;5.344;2023-06-22T00:37:39;23.50;99.90
30280;DHT22;17097;50.916;5.344;2023-06-22T00:40:10;23.60;99.90
30280;DHT22;17097;50.916;5.344;2023-06-22T00:42:38;23.70;99.90
30280;DHT22;17097;50.916;5.344;2023-06-22T00:45:05;23.60;99.90
30280;DHT22;17097;50.916;5.344;2023-06-22T00:47:34;23.60;99.90
30280;DHT22;17097;50.916;5.344;2023-06-22T00:50:00;23.50;99.90
30280;DHT22;17097;50.916;5.344;2023-06-22T00:52:26;23.50;99.90
30280;DHT22;17097;50.916;5.344;2023-06-22T00:54:56;23.50;99.90
30280;DHT22;17097;50.916;5.344;2023-06-22T00:57:24;23.50;99.90
30280;DHT22;17097;50.916;5.344;2023-06-22T00:59:53;23.50;99.90
30280;DHT22;17097;50.916;5.344;2023-06-22T01:02:19;23.50;99.90
30280;DHT22;17097;50.916;5.344;2023-06-22T01:04:46;23.50;99.90
30280;DHT22;17097;50.916;5.344;2023-06-22T01:07:34;23.60;99.90
30280;DHT22;17097;50.916;5.344;2023-06-22T01:10:10;23.60;99.90
30280;DHT22;17097;50.916;5.344;2023-06-22T01:12:40;23.60;99.90
30280;DHT22;17097;50.916;5.344;2023-06-22T01:15:14;23.50;99.90
30280;DHT22;17097;50.916;5.344;2023-06-22T01:17:44;23.50;99.90
30280;DHT22;17097;50.916;5.344;2023-06-22T01:20:12;23.40;99.90
30280;DHT22;17097;50.916;5.344;2023-06-22T01:25:20;23.50;99.90
30280;DHT22;17097;50.916;5.344;2023-06-22T01:27:58;23.50;99.90
30280;DHT22;17097;50.916;5.344;2023-06-22T01:30:27;23.40;99.90
30280;DHT22;17097;50.916;5.344;2023-06-22T01:32:56;23.30;99.90
30280;DHT22;17097;50.916;5.344;2023-06-22T01:35:22;23.30;99.90
30280;DHT22;17097;50.916;5.344;2023-06-22T01:37:49;23.30;99.90
30280;DHT22;17097;50.916;5.344;2023-06-22T01:40:18;23.20;99.90
30280;DHT22;17097;50.916;5.344;2023-06-22T01:42:45;23.20;99.90
30280;DHT22;17097;50.916;5.344;2023-06-22T01:45:11;23.20;99.90
30280;DHT22;17097;50.916;5.344;2023-06-22T01:47:40;23.10;99.90
30280;DHT22;17097;50.916;5.344;2023-06-22T01:50:06;23.00;99.90
30280;DHT22;17097;50.916;5.344;2023-06-22T01:52:32;23.10;99.90
30280;DHT22;17097;50.916;5.344;2023-06-22T01:55:03;23.00;99.90
30280;DHT22;17097;50.916;5.344;2023-06-22T01:57:32;23.10;99.90
30280;DHT22;17097;50.916;5.344;2023-06-22T01:59:59;23.10;99.90
30280;DHT22;17097;50.916;5.344;2023-06-22T02:05:29;23.10;99.90
30280;DHT22;17097;50.916;5.344;2023-06-22T02:08:09;23.00;99.90
30280;DHT22;17097;50.916;5.344;2023-06-22T02:10:37;23.00;99.90
30280;DHT22;17097;50.916;5.344;2023-06-22T02:13:06;22.90;99.90
30280;DHT22;17097;50.916;5.344;2023-06-22T02:15:33;22.90;99.90
30280;DHT22;17097;50.916;5.344;2023-06-22T02:17:59;22.90;99.90
30280;DHT22;17097;50.916;5.344;2023-06-22T02:20:30;22.80;99.90
30280;DHT22;17097;50.916;5.344;2023-06-22T02:22:57;22.90;99.90
30280;DHT22;17097;50.916;5.344;2023-06-22T02:25:23;23.00;99.90
30280;DHT22;17097;50.916;5.344;2023-06-22T02:27:48;23.00;99.90
30280;DHT22;17097;50.916;5.344;2023-06-22T02:30:15;23.20;99.90
30280;DHT22;17097;50.916;5.344;2023-06-22T02:32:44;23.10;99.90
30280;DHT22;17097;50.916;5.344;2023-06-22T02:35:12;23.10;99.90
30280;DHT22;17097;50.916;5.344;2023-06-22T02:37:38;23.00;99.90
30280;DHT22;17097;50.916;5.344;2023-06-22T02:40:07;23.00;99.90
30280;DHT22;17097;50.916;5.344;2023-06-22T02:42:34;23.10;99.90
30280;DHT22;17097;50.916;5.344;2023-06-22T02:45:05;23.00;99.90
30280;DHT22;17097;50.916;5.344;2023-06-22T02:47:31;23.00;99.90
30280;DHT22;17097;50.916;5.344;2023-06-22T02:50:00;23.00;99.90
30280;DHT22;17097;50.916;5.344;2023-06-22T02:52:26;23.00;99.90
30280;DHT22;17097;50.916;5.344;2023-06-22T02:54:52;23.00;99.90
30280;DHT22;17097;50.916;5.344;2023-06-22T02:57:18;23.10;99.90
30280;DHT22;17097;50.916;5.344;2023-06-22T02:59:43;23.10;99.90
30280;DHT22;17097;50.916;5.344;2023-06-22T03:02:10;23.00;99.90
30280;DHT22;17097;50.916;5.344;2023-06-22T03:04:39;23.10;99.90
30280;DHT22;17097;50.916;5.344;2023-06-22T03:07:04;23.00;99.90
30280;DHT22;17097;50.916;5.344;2023-06-22T03:09:31;22.90;99.90
30280;DHT22;17097;50.916;5.344;2023-06-22T03:11:57;22.80;99.90
30280;DHT22;17097;50.916;5.344;2023-06-22T03:14:23;22.90;99.90
30280;DHT22;17097;50.916;5.344;2023-06-22T03:16:51;22.80;99.90
30280;DHT22;17097;50.916;5.344;2023-06-22T03:19:16;22.70;99.90
30280;DHT22;17097;50.916;5.344;2023-06-22T03:21:42;22.60;99.90
30280;DHT22;17097;50.916;5.344;2023-06-22T03:24:08;22.60;99.90
30280;DHT22;17097;50.916;5.344;2023-06-22T03:26:35;22.60;99.90
30280;DHT22;17097;50.916;5.344;2023-06-22T03:29:00;22.50;99.90
30280;DHT22;17097;50.916;5.344;2023-06-22T03:31:29;22.60;99.90
30280;DHT22;17097;50.916;5.344;2023-06-22T03:33:54;22.60;99.90
30280;DHT22;17097;50.916;5.344;2023-06-22T03:36:21;22.50;99.90
30280;DHT22;17097;50.916;5.344;2023-06-22T03:38:48;22.50;99.90
30280;DHT22;17097;50.916;5.344;2023-06-22T03:41:14;22.60;99.90
30280;DHT22;17097;50.916;5.344;2023-06-22T03:43:39;22.50;99.90
30280;DHT22;17097;50.916;5.344;2023-06-22T03:46:06;22.50;99.90
30280;DHT22;17097;50.916;5.344;2023-06-22T03:48:31;22.50;99.90
30280;DHT22;17097;50.916;5.344;2023-06-22T03:50:59;22.50;99.90
30280;DHT22;17097;50.916;5.344;2023-06-22T03:53:25;22.60;99.90
30280;DHT22;17097;50.916;5.344;2023-06-22T03:55:52;22.50;99.90
30280;DHT22;17097;50.916;5.344;2023-06-22T03:58:19;22.50;99.90
30280;DHT22;17097;50.916;5.344;2023-06-22T04:00:50;22.60;99.90
30280;DHT22;17097;50.916;5.344;2023-06-22T04:03:19;22.50;99.90
30280;DHT22;17097;50.916;5.344;2023-06-22T04:05:45;22.50;99.90
30280;DHT22;17097;50.916;5.344;2023-06-22T04:08:12;22.50;99.90
30280;DHT22;17097;50.916;5.344;2023-06-22T04:10:38;22.50;99.90
30280;DHT22;17097;50.916;5.344;2023-06-22T04:13:03;22.50;99.90
30280;DHT22;17097;50.916;5.344;2023-06-22T04:15:31;22.50;99.90
30280;DHT22;17097;50.916;5.344;2023-06-22T04:17:59;22.40;99.90
30280;DHT22;17097;50.916;5.344;2023-06-22T04:20:24;22.40;99.90
30280;DHT22;17097;50.916;5.344;2023-06-22T04:22:54;22.50;99.90
30280;DHT22;17097;50.916;5.344;2023-06-22T04:25:20;22.50;99.90
30280;DHT22;17097;50.916;5.344;2023-06-22T04:27:46;22.50;99.90
30280;DHT22;17097;50.916;5.344;2023-06-22T04:30:12;22.50;99.90
30280;DHT22;17097;50.916;5.344;2023-06-22T04:32:40;22.60;99.90
30280;DHT22;17097;50.916;5.344;2023-06-22T04:35:06;22.50;99.90
30280;DHT22;17097;50.916;5.344;2023-06-22T04:37:33;22.50;99.90
30280;DHT22;17097;50.916;5.344;2023-06-22T04:40:04;22.60;99.90
30280;DHT22;17097;50.916;5.344;2023-06-22T04:42:30;22.60;99.90
30280;DHT22;17097;50.916;5.344;2023-06-22T04:44:57;22.70;99.90
30280;DHT22;17097;50.916;5.344;2023-06-22T04:47:22;22.60;99.90
30280;DHT22;17097;50.916;5.344;2023-06-22T04:49:48;22.70;99.90
30280;DHT22;17097;50.916;5.344;2023-06-22T04:52:14;22.70;99.90
30280;DHT22;17097;50.916;5.344;2023-06-22T04:54:43;22.70;99.90
30280;DHT22;17097;50.916;5.344;2023-06-22T04:57:16;22.70;99.90
30280;DHT22;17097;50.916;5.344;2023-06-22T04:59:49;22.80;99.90
30280;DHT22;17097;50.916;5.344;2023-06-22T05:02:14;22.80;99.90
30280;DHT22;17097;50.916;5.344;2023-06-22T05:04:43;22.80;99.90
30280;DHT22;17097;50.916;5.344;2023-06-22T05:07:09;22.80;99.90
30280;DHT22;17097;50.916;5.344;2023-06-22T05:09:35;22.70;99.90
30280;DHT22;17097;50.916;5.344;2023-06-22T05:12:02;22.70;99.90
30280;DHT22;17097;50.916;5.344;2023-06-22T05:14:29;22.60;99.90
30280;DHT22;17097;50.916;5.344;2023-06-22T05:16:55;22.60;99.90
30280;DHT22;17097;50.916;5.344;2023-06-22T05:19:24;22.60;99.90
30280;DHT22;17097;50.916;5.344;2023-06-22T05:21:50;22.60;99.90
30280;DHT22;17097;50.916;5.344;2023-06-22T05:24:18;22.50;99.90
30280;DHT22;17097;50.916;5.344;2023-06-22T05:26:44;22.60;99.90
30280;DHT22;17097;50.916;5.344;2023-06-22T05:29:10;22.50;99.90
30280;DHT22;17097;50.916;5.344;2023-06-22T05:31:39;22.40;99.90
30280;DHT22;17097;50.916;5.344;2023-06-22T05:34:08;22.40;99.90
30280;DHT22;17097;50.916;5.344;2023-06-22T05:36:34;22.60;99.90
30280;DHT22;17097;50.916;5.344;2023-06-22T05:39:14;22.60;99.90
30280;DHT22;17097;50.916;5.344;2023-06-22T05:41:40;22.50;99.90
30280;DHT22;17097;50.916;5.344;2023-06-22T05:44:06;22.40;99.90
30280;DHT22;17097;50.916;5.344;2023-06-22T05:46:32;22.40;99.90
30280;DHT22;17097;50.916;5.344;2023-06-22T05:48:57;22.30;99.90
30280;DHT22;17097;50.916;5.344;2023-06-22T05:51:23;22.20;99.90
30280;DHT22;17097;50.916;5.344;2023-06-22T05:53:49;22.10;99.90
30280;DHT22;17097;50.916;5.344;2023-06-22T05:56:15;22.20;99.90
30280;DHT22;17097;50.916;5.344;2023-06-22T05:58:41;22.20;99.90
30280;DHT22;17097;50.916;5.344;2023-06-22T06:01:06;22.10;99.90
30280;DHT22;17097;50.916;5.344;2023-06-22T06:03:33;22.10;99.90
30280;DHT22;17097;50.916;5.344;2023-06-22T06:06:01;22.10;99.90
30280;DHT22;17097;50.916;5.344;2023-06-22T06:08:28;22.10;99.90
30280;DHT22;17097;50.916;5.344;2023-06-22T06:10:53;22.20;99.90
30280;DHT22;17097;50.916;5.344;2023-06-22T06:13:25;22.20;99.90
30280;DHT22;17097;50.916;5.344;2023-06-22T06:15:50;22.40;99.90
30280;DHT22;17097;50.916;5.344;2023-06-22T06:18:17;22.40;99.90
30280;DHT22;17097;50.916;5.344;2023-06-22T06:20:42;22.40;99.90
30280;DHT22;17097;50.916;5.344;2023-06-22T06:23:08;22.40;99.90
30280;DHT22;17097;50.916;5.344;2023-06-22T06:25:34;22.30;99.90
30280;DHT22;17097;50.916;5.344;2023-06-22T06:28:00;22.60;99.90
30280;DHT22;17097;50.916;5.344;2023-06-22T06:30:27;22.70;99.90
30280;DHT22;17097;50.916;5.344;2023-06-22T06:32:52;22.90;99.90
30280;DHT22;17097;50.916;5.344;2023-06-22T06:35:20;22.80;99.90
30280;DHT22;17097;50.916;5.344;2023-06-22T06:37:50;22.90;99.90
30280;DHT22;17097;50.916;5.344;2023-06-22T06:40:18;22.80;99.90
30280;DHT22;17097;50.916;5.344;2023-06-22T06:42:48;22.70;99.90
30280;DHT22;17097;50.916;5.344;2023-06-22T06:45:19;22.70;99.90
30280;DHT22;17097;50.916;5.344;2023-06-22T06:47:45;22.80;99.90
30280;DHT22;17097;50.916;5.344;2023-06-22T06:50:11;22.80;99.90
30280;DHT22;17097;50.916;5.344;2023-06-22T06:52:38;22.90;99.90
30280;DHT22;17097;50.916;5.344;2023-06-22T06:55:04;23.10;99.90
30280;DHT22;17097;50.916;5.344;2023-06-22T06:57:33;23.10;99.90
30280;DHT22;17097;50.916;5.344;2023-06-22T07:00:03;23.20;99.90
30280;DHT22;17097;50.916;5.344;2023-06-22T07:02:34;23.20;99.90
30280;DHT22;17097;50.916;5.344;2023-06-22T07:05:00;23.30;99.90
30280;DHT22;17097;50.916;5.344;2023-06-22T07:07:29;23.60;99.90
30280;DHT22;17097;50.916;5.344;2023-06-22T07:09:56;23.70;99.90
30280;DHT22;17097;50.916;5.344;2023-06-22T07:12:22;23.90;99.90
30280;DHT22;17097;50.916;5.344;2023-06-22T07:14:48;24.20;99.90
30280;DHT22;17097;50.916;5.344;2023-06-22T07:17:18;24.10;99.90
30280;DHT22;17097;50.916;5.344;2023-06-22T07:19:46;24.10;99.90
30280;DHT22;17097;50.916;5.344;2023-06-22T07:22:12;24.10;99.90
30280;DHT22;17097;50.916;5.344;2023-06-22T07:24:37;24.00;99.90
30280;DHT22;17097;50.916;5.344;2023-06-22T07:27:04;24.10;99.90
30280;DHT22;17097;50.916;5.344;2023-06-22T07:29:32;24.00;99.90
30280;DHT22;17097;50.916;5.344;2023-06-22T07:31:58;24.00;99.90
30280;DHT22;17097;50.916;5.344;2023-06-22T07:34:26;24.00;99.90
30280;DHT22;17097;50.916;5.344;2023-06-22T07:36:51;24.00;99.90
30280;DHT22;17097;50.916;5.344;2023-06-22T07:39:17;23.90;99.90
30280;DHT22;17097;50.916;5.344;2023-06-22T07:41:45;23.90;99.90
30280;DHT22;17097;50.916;5.344;2023-06-22T07:44:12;23.90;99.90
30280;DHT22;17097;50.916;5.344;2023-06-22T07:46:38;24.00;99.90
30280;DHT22;17097;50.916;5.344;2023-06-22T07:49:03;24.10;99.90
30280;DHT22;17097;50.916;5.344;2023-06-22T07:51:29;24.10;99.90
30280;DHT22;17097;50.916;5.344;2023-06-22T07:53:55;24.20;99.90
30280;DHT22;17097;50.916;5.344;2023-06-22T07:56:23;24.20;99.90
30280;DHT22;17097;50.916;5.344;2023-06-22T07:58:49;24.20;99.90
30280;DHT22;17097;50.916;5.344;2023-06-22T08:01:15;24.30;99.90
30280;DHT22;17097;50.916;5.344;2023-06-22T08:03:41;24.30;99.90
30280;DHT22;17097;50.916;5.344;2023-06-22T08:06:09;24.50;99.90
30280;DHT22;17097;50.916;5.344;2023-06-22T08:08:36;24.60;99.90
30280;DHT22;17097;50.916;5.344;2023-06-22T08:11:02;24.80;99.90
30280;DHT22;17097;50.916;5.344;2023-06-22T08:13:34;25.00;99.90
30280;DHT22;17097;50.916;5.344;2023-06-22T08:16:02;25.10;99.90
30280;DHT22;17097;50.916;5.344;2023-06-22T08:18:28;25.30;99.90
30280;DHT22;17097;50.916;5.344;2023-06-22T08:20:55;25.50;99.90
30280;DHT22;17097;50.916;5.344;2023-06-22T08:23:21;25.50;99.90
30280;DHT22;17097;50.916;5.344;2023-06-22T08:25:47;25.50;99.90
30280;DHT22;17097;50.916;5.344;2023-06-22T08:28:13;25.70;99.90
30280;DHT22;17097;50.916;5.344;2023-06-22T08:30:39;25.70;99.90
30280;DHT22;17097;50.916;5.344;2023-06-22T08:33:05;25.80;99.90
30280;DHT22;17097;50.916;5.344;2023-06-22T08:35:31;26.00;99.90
30280;DHT22;17097;50.916;5.344;2023-06-22T08:37:56;26.10;99.90
30280;DHT22;17097;50.916;5.344;2023-06-22T08:40:24;26.20;99.90
30280;DHT22;17097;50.916;5.344;2023-06-22T08:42:50;26.40;99.90
30280;DHT22;17097;50.916;5.344;2023-06-22T08:45:16;26.50;99.90
30280;DHT22;17097;50.916;5.344;2023-06-22T08:47:42;26.70;99.90
30280;DHT22;17097;50.916;5.344;2023-06-22T08:50:12;26.90;99.90
30280;DHT22;17097;50.916;5.344;2023-06-22T08:52:40;27.00;99.90
30280;DHT22;17097;50.916;5.344;2023-06-22T08:55:07;27.00;99.90
30280;DHT22;17097;50.916;5.344;2023-06-22T08:57:36;26.90;99.90
30280;DHT22;17097;50.916;5.344;2023-06-22T09:00:09;26.70;99.90
30280;DHT22;17097;50.916;5.344;2023-06-22T09:02:42;26.60;99.90
30280;DHT22;17097;50.916;5.344;2023-06-22T09:05:11;26.70;99.90
30280;DHT22;17097;50.916;5.344;2023-06-22T09:07:37;26.60;99.90
30280;DHT22;17097;50.916;5.344;2023-06-22T09:10:04;26.50;99.90
30280;DHT22;17097;50.916;5.344;2023-06-22T09:12:31;26.40;99.90
30280;DHT22;17097;50.916;5.344;2023-06-22T09:15:01;26.50;99.90
30280;DHT22;17097;50.916;5.344;2023-06-22T09:17:28;26.40;99.90
30280;DHT22;17097;50.916;5.344;2023-06-22T09:19:54;26.50;99.90
30280;DHT22;17097;50.916;5.344;2023-06-22T09:22:21;26.50;99.90
30280;DHT22;17097;50.916;5.344;2023-06-22T09:24:47;26.30;99.90
30280;DHT22;17097;50.916;5.344;2023-06-22T09:27:12;26.30;99.90
30280;DHT22;17097;50.916;5.344;2023-06-22T09:29:41;26.20;99.90
30280;DHT22;17097;50.916;5.344;2023-06-22T09:32:08;26.20;99.90
30280;DHT22;17097;50.916;5.344;2023-06-22T09:34:34;26.10;99.90
30280;DHT22;17097;50.916;5.344;2023-06-22T09:37:03;25.90;99.90
30280;DHT22;17097;50.916;5.344;2023-06-22T09:39:30;25.90;99.90
30280;DHT22;17097;50.916;5.344;2023-06-22T09:41:59;26.00;99.90
30280;DHT22;17097;50.916;5.344;2023-06-22T09:44:28;26.00;99.90
30280;DHT22;17097;50.916;5.344;2023-06-22T09:46:54;25.90;99.90
30280;DHT22;17097;50.916;5.344;2023-06-22T09:49:22;25.80;99.90
30280;DHT22;17097;50.916;5.344;2023-06-22T09:51:48;25.70;99.90
30280;DHT22;17097;50.916;5.344;2023-06-22T09:54:15;25.70;99.90
30280;DHT22;17097;50.916;5.344;2023-06-22T09:56:41;25.60;99.90
30280;DHT22;17097;50.916;5.344;2023-06-22T09:59:07;25.70;99.90
30280;DHT22;17097;50.916;5.344;2023-06-22T10:01:33;25.60;99.90
30280;DHT22;17097;50.916;5.344;2023-06-22T10:03:59;25.60;99.90
30280;DHT22;17097;50.916;5.344;2023-06-22T10:06:24;25.40;99.90
30280;DHT22;17097;50.916;5.344;2023-06-22T10:08:51;25.30;99.90
30280;DHT22;17097;50.916;5.344;2023-06-22T10:11:17;25.40;99.90
30280;DHT22;17097;50.916;5.344;2023-06-22T10:13:44;25.30;99.90
30280;DHT22;17097;50.916;5.344;2023-06-22T10:16:11;25.20;99.90
30280;DHT22;17097;50.916;5.344;2023-06-22T10:18:39;25.20;99.90
30280;DHT22;17097;50.916;5.344;2023-06-22T10:21:08;25.10;99.90
30280;DHT22;17097;50.916;5.344;2023-06-22T10:23:34;25.10;99.90
30280;DHT22;17097;50.916;5.344;2023-06-22T10:26:00;25.10;99.90
30280;DHT22;17097;50.916;5.344;2023-06-22T10:28:26;25.10;99.90
30280;DHT22;17097;50.916;5.344;2023-06-22T10:30:52;25.10;99.90
30280;DHT22;17097;50.916;5.344;2023-06-22T10:33:18;25.10;99.90
30280;DHT22;17097;50.916;5.344;2023-06-22T10:35:44;25.00;99.90
30280;DHT22;17097;50.916;5.344;2023-06-22T10:38:10;24.50;99.90
30280;DHT22;17097;50.916;5.344;2023-06-22T10:40:36;24.40;99.90
30280;DHT22;17097;50.916;5.344;2023-06-22T10:43:02;24.20;99.90
30280;DHT22;17097;50.916;5.344;2023-06-22T10:45:27;24.20;99.90
30280;DHT22;17097;50.916;5.344;2023-06-22T10:47:55;24.10;99.90
30280;DHT22;17097;50.916;5.344;2023-06-22T10:50:21;24.00;99.90
30280;DHT22;17097;50.916;5.344;2023-06-22T10:52:49;23.90;99.90
30280;DHT22;17097;50.916;5.344;2023-06-22T10:55:15;23.70;99.90
30280;DHT22;17097;50.916;5.344;2023-06-22T10:57:41;23.50;99.90
30280;DHT22;17097;50.916;5.344;2023-06-22T11:00:13;23.70;99.90
30280;DHT22;17097;50.916;5.344;2023-06-22T11:02:41;23.70;99.90
30280;DHT22;17097;50.916;5.344;2023-06-22T11:05:08;23.70;99.90
30280;DHT22;17097;50.916;5.344;2023-06-22T11:07:34;23.50;99.90
30280;DHT22;17097;50.916;5.344;2023-06-22T11:10:00;23.70;99.90
30280;DHT22;17097;50.916;5.344;2023-06-22T11:12:25;23.70;99.90
30280;DHT22;17097;50.916;5.344;2023-06-22T11:14:53;23.60;99.90
30280;DHT22;17097;50.916;5.344;2023-06-22T11:17:19;23.60;99.90
30280;DHT22;17097;50.916;5.344;2023-06-22T11:19:45;23.60;99.90
30280;DHT22;17097;50.916;5.344;2023-06-22T11:22:16;23.80;99.90
30280;DHT22;17097;50.916;5.344;2023-06-22T11:24:45;23.80;99.90
30280;DHT22;17097;50.916;5.344;2023-06-22T11:27:11;23.50;99.90
30280;DHT22;17097;50.916;5.344;2023-06-22T11:29:37;23.50;99.90
30280;DHT22;17097;50.916;5.344;2023-06-22T11:32:06;23.60;99.90
30280;DHT22;17097;50.916;5.344;2023-06-22T11:34:34;23.60;99.90
30280;DHT22;17097;50.916;5.344;2023-06-22T11:37:05;23.60;99.90
30280;DHT22;17097;50.916;5.344;2023-06-22T11:39:32;23.50;99.90
30280;DHT22;17097;50.916;5.344;2023-06-22T11:41:57;23.40;99.90
30280;DHT22;17097;50.916;5.344;2023-06-22T11:44:23;23.30;99.90
30280;DHT22;17097;50.916;5.344;2023-06-22T11:46:48;23.30;99.90
30280;DHT22;17097;50.916;5.344;2023-06-22T11:49:15;23.30;99.90
30280;DHT22;17097;50.916;5.344;2023-06-22T11:51:40;23.20;99.90
30280;DHT22;17097;50.916;5.344;2023-06-22T11:54:07;23.10;99.90
30280;DHT22;17097;50.916;5.344;2023-06-22T11:56:33;23.10;99.90
30280;DHT22;17097;50.916;5.344;2023-06-22T11:58:59;22.90;99.90
30280;DHT22;17097;50.916;5.344;2023-06-22T12:01:24;22.80;99.90
30280;DHT22;17097;50.916;5.344;2023-06-22T12:03:50;22.80;99.90
30280;DHT22;17097;50.916;5.344;2023-06-22T12:06:17;22.80;99.90
30280;DHT22;17097;50.916;5.344;2023-06-22T12:08:45;22.70;99.90
30280;DHT22;17097;50.916;5.344;2023-06-22T12:11:11;22.60;99.90
30280;DHT22;17097;50.916;5.344;2023-06-22T12:13:37;22.60;99.90
30280;DHT22;17097;50.916;5.344;2023-06-22T12:16:04;22.50;99.90
30280;DHT22;17097;50.916;5.344;2023-06-22T12:18:30;22.40;99.90
30280;DHT22;17097;50.916;5.344;2023-06-22T12:20:55;22.00;99.90
30280;DHT22;17097;50.916;5.344;2023-06-22T12:23:23;22.10;99.90
30280;DHT22;17097;50.916;5.344;2023-06-22T12:25:50;22.30;99.90
30280;DHT22;17097;50.916;5.344;2023-06-22T12:28:16;22.10;99.90
30280;DHT22;17097;50.916;5.344;2023-06-22T12:30:43;22.20;99.90
30280;DHT22;17097;50.916;5.344;2023-06-22T12:33:09;22.30;99.90
30280;DHT22;17097;50.916;5.344;2023-06-22T12:35:35;22.30;99.90
30280;DHT22;17097;50.916;5.344;2023-06-22T12:38:01;22.20;99.90
30280;DHT22;17097;50.916;5.344;2023-06-22T12:40:28;22.10;99.90
30280;DHT22;17097;50.916;5.344;2023-06-22T12:42:55;21.90;99.90
30280;DHT22;17097;50.916;5.344;2023-06-22T12:45:21;21.90;99.90
30280;DHT22;17097;50.916;5.344;2023-06-22T12:47:47;21.80;99.90
30280;DHT22;17097;50.916;5.344;2023-06-22T12:50:17;21.70;99.90
30280;DHT22;17097;50.916;5.344;2023-06-22T12:52:43;21.90;99.90
30280;DHT22;17097;50.916;5.344;2023-06-22T12:55:10;22.00;99.90
30280;DHT22;17097;50.916;5.344;2023-06-22T12:57:36;22.00;99.90
30280;DHT22;17097;50.916;5.344;2023-06-22T13:00:02;21.90;99.90
30280;DHT22;17097;50.916;5.344;2023-06-22T13:02:32;22.00;99.90
30280;DHT22;17097;50.916;5.344;2023-06-22T13:04:58;21.80;99.90
30280;DHT22;17097;50.916;5.344;2023-06-22T13:07:24;22.00;99.90
30280;DHT22;17097;50.916;5.344;2023-06-22T13:09:50;21.90;99.90
30280;DHT22;17097;50.916;5.344;2023-06-22T13:12:17;21.70;99.90
30280;DHT22;17097;50.916;5.344;2023-06-22T13:14:43;21.80;99.90
30280;DHT22;17097;50.916;5.344;2023-06-22T13:17:09;21.70;99.90
30280;DHT22;17097;50.916;5.344;2023-06-22T13:19:37;21.70;99.90
30280;DHT22;17097;50.916;5.344;2023-06-22T13:22:04;21.60;99.90
30280;DHT22;17097;50.916;5.344;2023-06-22T13:24:30;21.50;99.90
30280;DHT22;17097;50.916;5.344;2023-06-22T13:26:56;21.60;99.90
30280;DHT22;17097;50.916;5.344;2023-06-22T13:29:22;21.50;99.90
30280;DHT22;17097;50.916;5.344;2023-06-22T13:31:48;21.50;99.90
30280;DHT22;17097;50.916;5.344;2023-06-22T13:34:16;21.40;99.90
30280;DHT22;17097;50.916;5.344;2023-06-22T13:36:42;21.30;99.90
30280;DHT22;17097;50.916;5.344;2023-06-22T13:39:07;21.20;99.90
30280;DHT22;17097;50.916;5.344;2023-06-22T13:41:33;21.10;99.90
30280;DHT22;17097;50.916;5.344;2023-06-22T13:43:59;21.00;99.90
30280;DHT22;17097;50.916;5.344;2023-06-22T13:46:25;21.00;99.90
30280;DHT22;17097;50.916;5.344;2023-06-22T13:48:51;21.10;99.90
30280;DHT22;17097;50.916;5.344;2023-06-22T13:51:18;21.00;99.90
30280;DHT22;17097;50.916;5.344;2023-06-22T13:53:43;20.90;99.90
30280;DHT22;17097;50.916;5.344;2023-06-22T13:56:09;20.90;99.90
30280;DHT22;17097;50.916;5.344;2023-06-22T13:58:36;20.80;99.90
30280;DHT22;17097;50.916;5.344;2023-06-22T14:01:04;20.70;99.90
30280;DHT22;17097;50.916;5.344;2023-06-22T14:03:29;20.80;99.90
30280;DHT22;17097;50.916;5.344;2023-06-22T14:05:56;20.50;99.90
30280;DHT22;17097;50.916;5.344;2023-06-22T14:08:26;20.50;99.90
30280;DHT22;17097;50.916;5.344;2023-06-22T14:10:52;20.60;99.90
30280;DHT22;17097;50.916;5.344;2023-06-22T14:13:19;20.70;99.90
30280;DHT22;17097;50.916;5.344;2023-06-22T14:15:45;20.50;99.90
30280;DHT22;17097;50.916;5.344;2023-06-22T14:18:16;20.20;99.90
30280;DHT22;17097;50.916;5.344;2023-06-22T14:20:41;20.20;99.90
30280;DHT22;17097;50.916;5.344;2023-06-22T14:23:07;20.20;99.90
30280;DHT22;17097;50.916;5.344;2023-06-22T14:25:33;20.10;99.90
30280;DHT22;17097;50.916;5.344;2023-06-22T14:28:02;20.20;99.90
30280;DHT22;17097;50.916;5.344;2023-06-22T14:30:28;20.10;99.90
30280;DHT22;17097;50.916;5.344;2023-06-22T14:32:54;20.00;99.90
30280;DHT22;17097;50.916;5.344;2023-06-22T14:35:20;20.00;99.90
30280;DHT22;17097;50.916;5.344;2023-06-22T14:37:47;20.00;99.90
30280;DHT22;17097;50.916;5.344;2023-06-22T14:40:12;20.00;99.90
30280;DHT22;17097;50.916;5.344;2023-06-22T14:42:41;19.90;99.90
30280;DHT22;17097;50.916;5.344;2023-06-22T14:45:07;19.80;99.90
30280;DHT22;17097;50.916;5.344;2023-06-22T14:47:33;19.90;99.90
30280;DHT22;17097;50.916;5.344;2023-06-22T14:49:59;20.00;99.90
30280;DHT22;17097;50.916;5.344;2023-06-22T14:52:27;20.00;99.90
30280;DHT22;17097;50.916;5.344;2023-06-22T14:54:53;20.00;99.90
30280;DHT22;17097;50.916;5.344;2023-06-22T14:57:19;19.80;99.90
30280;DHT22;17097;50.916;5.344;2023-06-22T14:59:46;19.70;99.90
30280;DHT22;17097;50.916;5.344;2023-06-22T15:02:13;19.60;99.90
30280;DHT22;17097;50.916;5.344;2023-06-22T15:04:40;19.60;99.90
30280;DHT22;17097;50.916;5.344;2023-06-22T15:07:06;19.60;99.90
30280;DHT22;17097;50.916;5.344;2023-06-22T15:09:32;19.60;99.90
30280;DHT22;17097;50.916;5.344;2023-06-22T15:11:58;19.60;99.90
30280;DHT22;17097;50.916;5.344;2023-06-22T15:14:27;19.50;99.90
30280;DHT22;17097;50.916;5.344;2023-06-22T15:16:55;19.40;99.90
30280;DHT22;17097;50.916;5.344;2023-06-22T15:19:22;19.30;99.90
30280;DHT22;17097;50.916;5.344;2023-06-22T15:21:49;19.40;99.90
30280;DHT22;17097;50.916;5.344;2023-06-22T15:24:15;19.60;99.90
30280;DHT22;17097;50.916;5.344;2023-06-22T15:26:41;19.60;99.90
30280;DHT22;17097;50.916;5.344;2023-06-22T15:29:07;19.60;99.90
30280;DHT22;17097;50.916;5.344;2023-06-22T15:31:33;19.60;99.90
30280;DHT22;17097;50.916;5.344;2023-06-22T15:33:59;19.40;99.90